Historique des stations

Station météo de Aubigny-sur-Nère

Altitude de la station : 197 m







Données météorologiques pour le 06/03/2021
Date
Heure
Températures Humidité Point de rosée Vitesse
du vent
Direction Rafales Windchill Pression Pluviométrie
Cumul
Date
Heure
Températures Humidité Point de rosée Vitesse
du vent
Direction Rafales Windchill Pression Pluviométrie
Cumul
06/03/2021 12:296.4 °C41 %-6.1 °C18 km/hENE26 km/h3.3 1023 hPa-
06/03/2021 12:146.2 °C41 %-6.1 °C18 km/hE26 km/h2.8 1023 hPa-
06/03/2021 11:596.0 °C44 %-5.6 °C16 km/hENE26 km/h2.8 1023 hPa-
06/03/2021 11:445.5 °C44 %-6.1 °C14 km/hE26 km/h2.2 1023 hPa-
06/03/2021 11:295.2 °C46 %-5.6 °C13 km/hENE26 km/h1.7 1023 hPa-
06/03/2021 11:144.9 °C47 %-5.6 °C10 km/hNNE26 km/h2.8 1023 hPa-
06/03/2021 10:594.4 °C47 %-6.1 °C14 km/hENE26 km/h1.1 1023 hPa-
06/03/2021 10:443.9 °C48 %-6.1 °C21 km/hENE24 km/h-0.6 1023 hPa-
06/03/2021 10:293.3 °C49 %-6.7 °C18 km/hENE24 km/h-0.6 1023 hPa-
06/03/2021 10:143.1 °C51 %-6.1 °C11 km/hENE24 km/h0.6 1023 hPa-
06/03/2021 10:002.5 °C51 %-6.7 °C16 km/hNE24 km/h-1.1 1023 hPa-
06/03/2021 09:452.1 °C53 %-6.7 °C10 km/hNNE24 km/h-0.6 1023 hPa-
06/03/2021 09:301.6 °C54 %-6.7 °C11 km/hE24 km/h-1.1 1023 hPa-
06/03/2021 09:151.2 °C55 %-7.2 °C8 km/hNE24 km/h-1.7 1023 hPa-
06/03/2021 09:000.9 °C56 %-7.2 °C8 km/hNE23 km/h-1.7 1023 hPa-
06/03/2021 08:440.5 °C56 %-7.2 °C11 km/hNE23 km/h-2.8 1023 hPa-
06/03/2021 08:290.1 °C57 %-7.8 °C14 km/hNE23 km/h-3.3 1023 hPa-
06/03/2021 08:14-0.2 °C57 %-7.8 °C14 km/hNE23 km/h-3.3 1023 hPa-
06/03/2021 07:59-0.3 °C57 %-7.8 °C8 km/hNE23 km/h-2.8 1022 hPa-
06/03/2021 07:44-0.4 °C58 %-7.8 °C8 km/hNE23 km/h-3.3 1022 hPa-
06/03/2021 07:29-0.3 °C58 %-7.8 °C6 km/hENE23 km/h-2.2 1022 hPa-
06/03/2021 07:14-0.3 °C58 %-7.8 °C10 km/hENE23 km/h-3.3 1022 hPa-
06/03/2021 06:59-0.3 °C58 %-7.8 °C8 km/hNE23 km/h-2.8 1022 hPa-
06/03/2021 06:44-0.1 °C57 %-7.8 °C5 km/hNE23 km/h-1.1 1022 hPa-
06/03/2021 06:29-0.1 °C58 %-7.8 °C8 km/hENE23 km/h-2.8 1022 hPa-
06/03/2021 06:13-0.2 °C58 %-7.8 °C8 km/hENE23 km/h-2.8 1022 hPa-
06/03/2021 05:59-0.1 °C57 %-7.8 °C11 km/hNE23 km/h-3.3 1022 hPa-
06/03/2021 05:440.1 °C57 %-7.8 °C6 km/hNNE23 km/h-1.7 1022 hPa-
06/03/2021 05:290.3 °C57 %-7.2 °C5 km/hNE23 km/h-0.6 1022 hPa-
06/03/2021 05:140.4 °C57 %-7.2 °C11 km/hNE23 km/h-2.8 1022 hPa-
06/03/2021 05:000.6 °C57 %-7.2 °C6 km/hENE23 km/h-1.1 1022 hPa-
06/03/2021 04:450.7 °C56 %-7.2 °C5 km/hNE23 km/h-0.6 1022 hPa-
06/03/2021 04:300.8 °C56 %-7.2 °C3 km/hENE23 km/h-0.6 1022 hPa-
06/03/2021 04:150.7 °C57 %-7.2 °C5 km/hNE23 km/h-0.6 1022 hPa-
06/03/2021 04:000.8 °C57 %-7.2 °C5 km/hNE23 km/h-0.6 1022 hPa-
06/03/2021 03:450.9 °C56 %-7.2 °C3 km/hENE23 km/h0.0 1022 hPa-
06/03/2021 03:301.1 °C56 %-6.7 °C5 km/hENE23 km/h0.0 1022 hPa-
06/03/2021 03:151.3 °C55 %-6.7 °C6 km/hE23 km/h-0.6 1022 hPa-
06/03/2021 03:001.4 °C55 %-6.7 °C3 km/hENE23 km/h0.6 1022 hPa-
06/03/2021 02:451.7 °C54 %-6.7 °C6 km/hNE23 km/h0.0 1022 hPa-
06/03/2021 02:301.8 °C54 %-6.7 °C6 km/hNE23 km/h0.0 1022 hPa-
06/03/2021 02:152.0 °C54 %-6.7 °C11 km/hENE23 km/h-0.6 1022 hPa-
06/03/2021 01:592.3 °C53 %-6.7 °C6 km/hNE23 km/h0.6 1022 hPa-
06/03/2021 01:442.4 °C53 %-6.1 °C16 km/hNE23 km/h-1.7 1022 hPa-
06/03/2021 01:292.7 °C52 %-6.7 °C11 km/hENE23 km/h0.0 1022 hPa-
06/03/2021 01:142.8 °C52 %-6.1 °C6 km/hNE21 km/h1.1 1022 hPa-
06/03/2021 00:592.9 °C52 %-6.1 °C6 km/hNE21 km/h1.1 1022 hPa-
06/03/2021 00:442.9 °C51 %-6.1 °C6 km/hNE18 km/h1.1 1022 hPa-
06/03/2021 00:293.0 °C51 %-6.1 °C8 km/hNNE16 km/h0.6 1022 hPa-
06/03/2021 00:143.2 °C50 %-6.1 °C6 km/hNE16 km/h1.7 1022 hPa-


Minima :

Température : -0.4 °C
Humidité : 41 %
Point de rosée : -7.8 °C
Vent moyen : 3 km/h
Windchill : -3.3
Pression atm. : 1022 hPa
Maxima :

Température : 6.4 °C
Humidité : 58 %
Point de rosée : -5.6 °C
Vent moyen : 21 km/h
Windchill : 3.3
Pression atm. : 1023 hPa
Rafales max : 26 km/h
Cumul de pluie sur 24H : 0 mm

Aubigny-sur-Nère est une commune du département Cher (18).
La station météorologique du réseau de l'association la plus proche de Aubigny-sur-Nère est celle de Salbris



Icône Facebook Association Météo Centre Icône Twitter Association Météo Centre Icône Chaîne Youtube Association Météo Centre Icône contact Association Météo Centre Icône Insta Association Météo Centre